createdAt,value
2019-05-01T00:01:22.685Z,59.63
2019-05-01T00:04:09.649Z,60.50
2019-05-01T00:06:50.090Z,55.77
2019-05-01T00:09:20.033Z,63.17
2019-05-01T00:11:49.575Z,65.67
2019-05-01T00:14:19.916Z,62.33
2019-05-01T00:16:49.704Z,59.80
2019-05-01T00:19:25.998Z,63.73
2019-05-01T00:22:02.500Z,57.67
2019-05-01T00:24:32.101Z,64.07
2019-05-01T00:27:08.371Z,65.13
2019-05-01T00:29:38.009Z,61.33
2019-05-01T00:32:07.537Z,64.53
2019-05-01T00:34:37.417Z,57.90
2019-05-01T00:37:07.062Z,62.13
2019-05-01T00:39:36.593Z,61.30
2019-05-01T00:42:06.640Z,65.87
2019-05-01T00:44:35.769Z,68.17
2019-05-01T00:47:05.314Z,67.03
2019-05-01T00:49:36.245Z,65.23
2019-05-01T00:52:11.821Z,70.70
2019-05-01T00:54:42.309Z,66.83
2019-05-01T00:57:28.865Z,64.10
2019-05-01T01:00:17.499Z,68.43
2019-05-01T01:02:50.287Z,61.63
2019-05-01T01:05:19.825Z,66.43
2019-05-01T01:07:48.956Z,67.63
2019-05-01T01:10:18.893Z,62.77
2019-05-01T01:12:48.425Z,61.77
2019-05-01T01:15:17.413Z,62.37
2019-05-01T01:17:46.997Z,65.47
2019-05-01T01:20:15.976Z,69.90
2019-05-01T01:22:51.843Z,70.00
2019-05-01T01:25:20.736Z,74.43
2019-05-01T01:27:50.304Z,71.93
2019-05-01T01:30:19.989Z,71.27
2019-05-01T01:32:48.872Z,74.03
2019-05-01T01:35:18.895Z,68.60
2019-05-01T01:37:48.409Z,68.17
2019-05-01T01:40:18.718Z,68.17
2019-05-01T01:42:51.364Z,66.07
2019-05-01T01:45:30.539Z,73.90
2019-05-01T01:48:10.370Z,72.10
2019-05-01T01:50:42.605Z,65.33
2019-05-01T01:53:15.933Z,70.37
2019-05-01T01:55:46.854Z,79.00
2019-05-01T01:58:24.667Z,69.13
2019-05-01T02:01:18.580Z,73.27
2019-05-01T02:03:52.507Z,70.17
2019-05-01T02:06:22.910Z,73.60
2019-05-01T02:08:56.663Z,71.53
2019-05-01T02:11:24.041Z,73.10
2019-05-01T02:13:55.536Z,75.47
2019-05-01T02:16:26.742Z,69.80
2019-05-01T02:18:55.702Z,69.93
2019-05-01T02:21:31.807Z,72.00
2019-05-01T02:24:01.533Z,75.83
2019-05-01T02:26:34.760Z,70.30
2019-05-01T02:29:29.345Z,78.43
2019-05-01T02:32:00.663Z,71.07
2019-05-01T02:34:32.806Z,75.90
2019-05-01T02:37:03.499Z,72.23
2019-05-01T02:39:34.147Z,77.23
2019-05-01T02:42:04.332Z,82.17
2019-05-01T02:44:39.509Z,89.73
2019-05-01T02:47:09.865Z,84.67
2019-05-01T02:49:53.900Z,76.40
2019-05-01T02:52:26.471Z,77.20
2019-05-01T02:54:57.699Z,79.53
2019-05-01T02:57:28.091Z,76.00
2019-05-01T02:59:58.622Z,76.03
2019-05-01T03:02:30.027Z,82.60
2019-05-01T03:04:59.318Z,80.00
2019-05-01T03:07:31.957Z,83.27
2019-05-01T03:10:11.585Z,76.27
2019-05-01T03:12:44.464Z,88.30
2019-05-01T03:15:15.506Z,95.90
2019-05-01T03:18:10.906Z,80.80
2019-05-01T03:21:00.516Z,88.30
2019-05-01T03:23:34.000Z,75.13
2019-05-01T03:26:05.928Z,69.97
2019-05-01T03:28:35.747Z,76.93
2019-05-01T03:31:04.854Z,77.33
2019-05-01T03:33:34.887Z,73.63
2019-05-01T03:36:05.536Z,82.50
2019-05-01T03:38:35.682Z,82.43
2019-05-01T03:41:05.952Z,83.70
2019-05-01T03:43:36.303Z,82.57
2019-05-01T03:46:06.126Z,82.30
2019-05-01T03:48:35.061Z,87.80
2019-05-01T03:51:04.909Z,82.93
2019-05-01T03:53:34.216Z,88.93
2019-05-01T03:56:03.440Z,78.60
2019-05-01T03:58:33.554Z,89.33
2019-05-01T04:01:26.582Z,83.57
2019-05-01T04:03:59.144Z,87.53
2019-05-01T04:06:28.765Z,89.23
2019-05-01T04:08:59.927Z,83.77
2019-05-01T04:11:29.755Z,76.13
2019-05-01T04:14:06.862Z,81.43
2019-05-01T04:16:36.174Z,82.20
2019-05-01T04:19:05.801Z,78.73
2019-05-01T04:21:42.477Z,82.40
2019-05-01T04:24:12.545Z,74.50
2019-05-01T04:26:42.349Z,78.60
2019-05-01T04:29:43.006Z,77.67
2019-05-01T04:32:50.131Z,79.00
2019-05-01T04:35:19.542Z,75.40
2019-05-01T04:37:58.613Z,73.50
2019-05-01T04:40:28.204Z,75.13
2019-05-01T04:43:06.557Z,74.87
2019-05-01T04:45:41.532Z,75.30
2019-05-01T04:48:10.437Z,76.73
2019-05-01T04:50:40.354Z,73.63
2019-05-01T04:53:10.413Z,73.17
2019-05-01T04:55:40.286Z,75.83
2019-05-01T04:58:10.312Z,75.43
2019-05-01T05:00:39.964Z,73.67
2019-05-01T05:03:13.582Z,82.07
2019-05-01T05:05:53.034Z,82.73
2019-05-01T05:08:23.162Z,82.73
2019-05-01T05:10:58.511Z,79.03
2019-05-01T05:13:37.523Z,89.50
2019-05-01T05:16:42.625Z,85.13
2019-05-01T05:19:11.702Z,91.73
2019-05-01T05:21:49.281Z,85.67
2019-05-01T05:24:18.434Z,88.70
2019-05-01T05:26:48.824Z,88.50
2019-05-01T05:29:19.077Z,97.17
2019-05-01T05:31:54.307Z,118.53
2019-05-01T05:34:27.060Z,122.00
2019-05-01T05:36:59.480Z,119.60
2019-05-01T05:39:38.868Z,141.23
2019-05-01T05:42:09.063Z,149.93
2019-05-01T05:44:49.484Z,204.57
2019-05-01T05:47:19.372Z,150.83
2019-05-01T05:49:49.212Z,145.17
2019-05-01T05:52:35.973Z,149.70
2019-05-01T05:55:18.252Z,151.87
2019-05-01T05:58:09.892Z,153.40
2019-05-01T06:01:15.245Z,143.40
2019-05-01T06:04:11.764Z,141.63
2019-05-01T06:06:59.484Z,162.10
2019-05-01T06:09:52.202Z,195.10
2019-05-01T06:12:49.938Z,210.77
2019-05-01T06:15:29.885Z,171.33
2019-05-01T06:18:10.354Z,160.77
2019-05-01T06:20:56.971Z,157.00
2019-05-01T06:23:46.363Z,144.37
2019-05-01T06:26:27.512Z,187.00
2019-05-01T06:29:00.681Z,197.23
2019-05-01T06:31:29.959Z,162.50
2019-05-01T06:33:59.876Z,166.13
2019-05-01T06:36:30.165Z,171.50
2019-05-01T06:39:01.603Z,182.43
2019-05-01T06:41:42.284Z,143.97
2019-05-01T06:44:14.042Z,173.87
2019-05-01T06:47:03.649Z,161.63
2019-05-01T06:49:54.313Z,172.30
2019-05-01T06:52:29.375Z,166.50
2019-05-01T06:54:59.013Z,165.00
2019-05-01T06:57:29.158Z,164.03
2019-05-01T07:00:03.246Z,149.47
2019-05-01T07:02:35.100Z,145.60
2019-05-01T07:05:14.785Z,140.70
2019-05-01T07:07:48.257Z,131.03
2019-05-01T07:10:15.736Z,138.43
2019-05-01T07:12:45.434Z,143.97
2019-05-01T07:15:15.112Z,156.47
2019-05-01T07:17:47.881Z,135.13
2019-05-01T07:20:37.847Z,137.90
2019-05-01T07:23:06.743Z,141.70
2019-05-01T07:25:39.477Z,150.43
2019-05-01T07:28:06.882Z,161.87
2019-05-01T07:31:03.556Z,164.00
2019-05-01T07:33:32.436Z,161.57
2019-05-01T07:36:01.953Z,180.63
2019-05-01T07:38:32.880Z,171.97
2019-05-01T07:41:05.865Z,173.67
2019-05-01T07:44:01.058Z,163.90
2019-05-01T07:46:54.331Z,161.83
2019-05-01T07:49:30.292Z,155.50
2019-05-01T07:52:06.465Z,173.03
2019-05-01T07:54:37.804Z,173.30
2019-05-01T07:57:09.044Z,167.17
2019-05-01T07:59:46.935Z,161.23
2019-05-01T08:02:16.772Z,147.90
2019-05-01T08:04:46.348Z,156.30
2019-05-01T08:07:15.916Z,145.73
2019-05-01T08:09:45.900Z,134.73
2019-05-01T08:12:18.830Z,147.00
2019-05-01T08:14:47.697Z,145.13
2019-05-01T08:17:20.831Z,131.40
2019-05-01T08:20:01.168Z,134.03
2019-05-01T08:22:39.027Z,118.67
2019-05-01T08:25:08.879Z,134.03
2019-05-01T08:28:06.501Z,128.43
2019-05-01T08:30:55.296Z,132.53
2019-05-01T08:33:59.123Z,127.33
2019-05-01T08:36:32.830Z,130.27
2019-05-01T08:39:11.396Z,146.57
2019-05-01T08:44:32.801Z,152.37
2019-05-01T08:47:12.807Z,139.07
2019-05-01T08:50:05.888Z,134.90
2019-05-01T08:52:36.533Z,149.07
2019-05-01T08:55:16.975Z,145.50
2019-05-01T08:57:46.506Z,146.97
2019-05-01T09:00:16.141Z,142.50
2019-05-01T09:02:45.149Z,127.27
2019-05-01T09:05:28.347Z,134.90
2019-05-01T09:07:45.163Z,138.30
2019-05-01T09:10:17.017Z,149.07
2019-05-01T09:12:52.194Z,145.73
2019-05-01T09:15:36.413Z,151.00
2019-05-01T09:18:14.668Z,156.23
2019-05-01T09:20:49.974Z,143.40
2019-05-01T09:26:45.342Z,150.30
2019-05-01T09:29:21.158Z,130.83
2019-05-01T09:31:50.744Z,146.50
2019-05-01T09:34:25.468Z,135.70
2019-05-01T09:37:04.700Z,151.10
2019-05-01T09:39:35.644Z,154.80
2019-05-01T09:42:06.709Z,139.80
2019-05-01T09:44:36.760Z,149.37
2019-05-01T09:47:09.079Z,142.47
2019-05-01T09:49:48.660Z,156.13
2019-05-01T09:52:30.342Z,141.10
2019-05-01T09:55:25.078Z,146.27
2019-05-01T09:58:03.425Z,147.87
2019-05-01T10:00:40.327Z,144.27
2019-05-01T10:03:21.305Z,154.47
2019-05-01T10:05:52.376Z,149.40
2019-05-01T10:08:21.824Z,140.67
2019-05-01T10:10:50.817Z,151.77
2019-05-01T10:13:22.355Z,138.60
2019-05-01T10:15:52.069Z,150.97
2019-05-01T10:18:21.838Z,133.33
2019-05-01T10:20:50.946Z,143.17
2019-05-01T10:23:20.670Z,129.27
2019-05-01T10:26:01.179Z,135.10
2019-05-01T10:28:50.132Z,132.33
2019-05-01T10:31:42.795Z,140.20
2019-05-01T10:34:33.566Z,128.97
2019-05-01T10:37:03.599Z,137.87
2019-05-01T10:39:32.590Z,139.37
2019-05-01T10:42:01.945Z,133.20
2019-05-01T10:44:31.500Z,131.40
2019-05-01T10:47:02.320Z,130.67
2019-05-01T10:49:31.830Z,136.70
2019-05-01T10:52:14.262Z,144.63
2019-05-01T10:54:39.283Z,133.33
2019-05-01T10:57:09.511Z,140.47
2019-05-01T10:59:56.198Z,149.77
2019-05-01T11:02:25.443Z,125.63
2019-05-01T11:04:55.068Z,144.57
2019-05-01T11:07:35.717Z,140.93
2019-05-01T11:10:06.957Z,141.13
2019-05-01T11:12:46.678Z,143.43
2019-05-01T11:15:17.775Z,147.47
2019-05-01T11:17:47.677Z,151.53
2019-05-01T11:20:16.661Z,134.07
2019-05-01T11:22:45.597Z,140.33
2019-05-01T11:25:16.345Z,137.60
2019-05-01T11:27:45.556Z,141.93
2019-05-01T11:30:23.372Z,135.07
2019-05-01T11:33:11.035Z,135.30
2019-05-01T11:36:09.249Z,130.00
2019-05-01T11:38:48.317Z,127.40
2019-05-01T11:41:24.793Z,123.20
2019-05-01T11:43:54.541Z,142.73
2019-05-01T11:46:23.821Z,132.23
2019-05-01T11:48:53.428Z,125.57
2019-05-01T11:51:23.709Z,135.37
2019-05-01T11:54:02.543Z,134.37
2019-05-01T11:56:32.458Z,117.53
2019-05-01T11:59:02.210Z,127.10
2019-05-01T12:01:31.854Z,126.13
2019-05-01T12:04:01.115Z,125.77
2019-05-01T12:06:30.892Z,119.20
2019-05-01T12:09:02.106Z,107.00
2019-05-01T12:11:36.455Z,108.23
2019-05-01T12:14:05.388Z,109.20
2019-05-01T12:16:51.925Z,110.27
2019-05-01T12:19:30.398Z,120.23
2019-05-01T12:22:00.674Z,107.90
2019-05-01T12:27:07.661Z,111.37
2019-05-01T12:29:39.993Z,109.13
2019-05-01T12:32:09.617Z,111.50
2019-05-01T12:34:39.834Z,116.40
2019-05-01T12:37:22.788Z,103.00
2019-05-01T12:39:52.143Z,101.63
2019-05-01T12:44:52.430Z,98.03
2019-05-01T12:47:45.178Z,99.87
2019-05-01T12:50:15.280Z,83.97
2019-05-01T12:53:03.270Z,90.03
2019-05-01T12:55:57.377Z,85.80
2019-05-01T12:58:26.778Z,92.93
2019-05-01T13:00:56.702Z,87.37
2019-05-01T13:03:25.999Z,89.87
2019-05-01T13:05:56.407Z,92.70
2019-05-01T13:08:25.478Z,113.47
2019-05-01T13:10:55.246Z,101.03
2019-05-01T13:13:24.420Z,104.10
2019-05-01T13:15:54.221Z,97.50
2019-05-01T13:18:23.965Z,95.17
2019-05-01T13:20:53.349Z,98.73
2019-05-01T13:23:23.201Z,98.40
2019-05-01T13:25:53.495Z,97.93
2019-05-01T13:28:54.123Z,108.83
2019-05-01T13:31:37.507Z,103.53
2019-05-01T13:34:07.243Z,97.03
2019-05-01T13:36:37.203Z,107.63
2019-05-01T13:39:07.208Z,98.23
2019-05-01T13:41:36.969Z,97.73
2019-05-01T13:44:06.132Z,86.17
2019-05-01T13:46:36.386Z,89.07
2019-05-01T13:49:06.321Z,88.00
2019-05-01T13:51:44.055Z,81.23
2019-05-01T13:54:13.482Z,79.87
2019-05-01T13:56:43.242Z,84.17
2019-05-01T13:59:14.149Z,81.17
2019-05-01T14:01:46.147Z,73.97
2019-05-01T14:04:15.952Z,69.30
2019-05-01T14:06:45.810Z,70.23
2019-05-01T14:09:22.391Z,69.70
2019-05-01T14:11:52.290Z,71.60
2019-05-01T14:14:22.168Z,64.47
2019-05-01T14:16:52.037Z,65.47
2019-05-01T14:19:21.901Z,60.63
2019-05-01T14:22:22.095Z,66.67
2019-05-01T14:24:54.241Z,66.47
2019-05-01T14:27:24.047Z,63.87
2019-05-01T14:29:53.277Z,59.50
2019-05-01T14:32:29.727Z,54.50
2019-05-01T14:35:04.543Z,58.83
2019-05-01T14:37:47.882Z,56.30
2019-05-01T14:40:18.988Z,53.67
2019-05-01T14:42:48.839Z,61.37
2019-05-01T14:45:18.006Z,51.73
2019-05-01T14:47:47.819Z,51.17
2019-05-01T14:50:17.285Z,50.53
2019-05-01T14:52:46.521Z,57.37
2019-05-01T14:55:16.436Z,54.43
2019-05-01T14:57:46.325Z,53.27
2019-05-01T15:00:16.313Z,50.87
2019-05-01T15:02:46.954Z,53.80
2019-05-01T15:05:17.023Z,53.73
2019-05-01T15:07:46.729Z,49.27
2019-05-01T15:10:16.149Z,52.17
2019-05-01T15:12:46.821Z,50.37
2019-05-01T15:15:40.681Z,52.93
2019-05-01T15:18:29.013Z,48.30
2019-05-01T15:20:58.953Z,48.90
2019-05-01T15:23:28.779Z,52.93
2019-05-01T15:25:58.521Z,55.53
2019-05-01T15:28:28.282Z,50.53
2019-05-01T15:30:58.164Z,54.13
2019-05-01T15:33:28.184Z,52.77
2019-05-01T15:35:57.995Z,50.27
2019-05-01T15:38:27.036Z,52.03
2019-05-01T15:41:05.330Z,55.53
2019-05-01T15:43:37.314Z,52.80
2019-05-01T15:46:07.357Z,55.70
2019-05-01T15:48:36.414Z,54.23
2019-05-01T15:51:06.167Z,53.73
2019-05-01T15:53:36.269Z,59.30
2019-05-01T15:56:06.114Z,60.10
2019-05-01T15:58:35.943Z,54.13
2019-05-01T16:01:06.423Z,54.33
2019-05-01T16:03:37.125Z,53.40
2019-05-01T16:06:08.449Z,60.17
2019-05-01T16:08:45.560Z,52.23
2019-05-01T16:11:37.224Z,56.20
2019-05-01T16:14:06.966Z,56.00
2019-05-01T16:16:35.998Z,54.97
2019-05-01T16:19:05.982Z,55.77
2019-05-01T16:21:35.009Z,56.23
2019-05-01T16:24:07.081Z,54.90
2019-05-01T16:26:43.400Z,53.73
2019-05-01T16:29:16.023Z,58.83
2019-05-01T16:31:45.778Z,59.97
2019-05-01T16:34:15.666Z,59.20
2019-05-01T16:36:45.495Z,58.60
2019-05-01T16:39:51.383Z,61.70
2019-05-01T16:42:36.405Z,61.67
2019-05-01T16:45:10.063Z,59.83
2019-05-01T16:47:40.113Z,61.33
2019-05-01T16:50:10.539Z,58.50
2019-05-01T16:52:40.944Z,53.97
2019-05-01T16:55:12.225Z,58.53
2019-05-01T16:57:43.025Z,57.40
2019-05-01T17:00:13.923Z,61.60
2019-05-01T17:03:01.915Z,60.23
2019-05-01T17:05:52.013Z,60.40
2019-05-01T17:08:50.464Z,56.80
2019-05-01T17:11:23.269Z,61.97
2019-05-01T17:13:53.014Z,61.20
2019-05-01T17:16:22.793Z,60.67
2019-05-01T17:18:51.836Z,64.47
2019-05-01T17:21:22.016Z,59.10
2019-05-01T17:23:53.459Z,58.60
2019-05-01T17:26:22.452Z,58.33
2019-05-01T17:28:52.222Z,65.40
2019-05-01T17:31:21.713Z,62.27
2019-05-01T17:33:55.467Z,58.10
2019-05-01T17:36:23.146Z,63.20
2019-05-01T17:38:53.244Z,64.80
2019-05-01T17:41:27.116Z,60.37
2019-05-01T17:43:56.597Z,61.73
2019-05-01T17:46:26.469Z,61.90
2019-05-01T17:48:55.754Z,64.13
2019-05-01T17:51:34.294Z,61.43
2019-05-01T17:54:15.854Z,66.47
2019-05-01T17:56:48.457Z,63.97
2019-05-01T17:59:18.631Z,68.20
2019-05-01T18:02:10.133Z,61.60
2019-05-01T18:04:56.943Z,70.83
2019-05-01T18:07:45.283Z,68.03
2019-05-01T18:10:20.706Z,62.83
2019-05-01T18:12:49.933Z,63.27
2019-05-01T18:15:20.259Z,63.67
2019-05-01T18:17:50.333Z,65.07
2019-05-01T18:20:19.639Z,65.33
2019-05-01T18:23:15.916Z,64.73
2019-05-01T18:25:49.783Z,65.23
2019-05-01T18:28:40.942Z,65.57
2019-05-01T18:31:14.830Z,68.50
2019-05-01T18:33:43.863Z,60.37
2019-05-01T18:36:15.025Z,69.77
2019-05-01T18:39:15.791Z,71.47
2019-05-01T18:41:49.998Z,61.13
2019-05-01T18:44:19.034Z,65.43
2019-05-01T18:47:06.995Z,67.87
2019-05-01T18:49:36.760Z,72.07
2019-05-01T18:52:06.732Z,66.27
2019-05-01T18:54:36.694Z,71.67
2019-05-01T18:57:06.975Z,73.90
2019-05-01T18:59:44.942Z,69.63
2019-05-01T19:02:24.941Z,71.07
2019-05-01T19:04:53.970Z,68.27
2019-05-01T19:07:22.994Z,68.63
2019-05-01T19:09:57.075Z,69.50
2019-05-01T19:12:27.399Z,68.10
2019-05-01T19:15:00.405Z,84.13
2019-05-01T19:17:27.149Z,73.37
2019-05-01T19:19:56.907Z,79.10
2019-05-01T19:22:29.043Z,74.00
2019-05-01T19:24:58.622Z,75.30
2019-05-01T19:27:28.480Z,69.27
2019-05-01T19:30:02.375Z,77.93
2019-05-01T19:32:32.467Z,80.60
2019-05-01T19:35:02.506Z,79.70
2019-05-01T19:37:33.580Z,92.40
2019-05-01T19:40:05.093Z,73.53
2019-05-01T19:42:35.145Z,70.13
2019-05-01T19:45:06.106Z,81.67
2019-05-01T19:47:35.884Z,81.20
2019-05-01T19:50:09.360Z,78.10
2019-05-01T19:52:39.901Z,80.50
2019-05-01T19:55:09.964Z,72.33
2019-05-01T19:57:39.659Z,78.90
2019-05-01T20:00:09.860Z,84.00
2019-05-01T20:02:39.190Z,81.80
2019-05-01T20:05:11.179Z,86.03
2019-05-01T20:07:41.193Z,84.83
2019-05-01T20:10:11.034Z,77.87
2019-05-01T20:12:41.059Z,90.40
2019-05-01T20:15:10.294Z,75.57
2019-05-01T20:17:42.414Z,74.50
2019-05-01T20:20:12.442Z,82.90
2019-05-01T20:22:42.218Z,83.73
2019-05-01T20:25:14.616Z,83.37
2019-05-01T20:27:47.769Z,85.37
2019-05-01T20:30:16.502Z,87.03
2019-05-01T20:32:46.563Z,89.77
2019-05-01T20:35:16.352Z,89.97
2019-05-01T20:37:46.631Z,88.67
2019-05-01T20:40:15.787Z,86.87
2019-05-01T20:42:46.068Z,85.50
2019-05-01T20:45:18.300Z,89.33
2019-05-01T20:47:48.234Z,82.50
2019-05-01T20:50:18.386Z,87.03
2019-05-01T20:52:49.404Z,90.90
2019-05-01T20:55:19.257Z,88.60
2019-05-01T20:57:49.779Z,87.90
2019-05-01T21:00:21.959Z,84.47
2019-05-01T21:02:51.708Z,90.57
2019-05-01T21:05:29.986Z,86.07
2019-05-01T21:08:21.597Z,89.23
2019-05-01T21:10:56.532Z,86.33
2019-05-01T21:13:27.109Z,85.80
2019-05-01T21:16:01.125Z,97.90
2019-05-01T21:18:27.800Z,89.07
2019-05-01T21:20:57.145Z,89.07
2019-05-01T21:23:26.892Z,87.80
2019-05-01T21:25:56.626Z,92.40
2019-05-01T21:28:26.386Z,94.73
2019-05-01T21:30:56.158Z,97.50
2019-05-01T21:33:25.914Z,94.07
2019-05-01T21:35:59.585Z,92.93
2019-05-01T21:38:28.861Z,91.80
2019-05-01T21:40:58.591Z,95.37
2019-05-01T21:43:36.904Z,98.53
2019-05-01T21:46:04.066Z,105.63
2019-05-01T21:48:34.876Z,96.70
2019-05-01T21:51:07.490Z,115.00
2019-05-01T21:53:42.040Z,108.70
2019-05-01T21:56:08.244Z,103.57
2019-05-01T21:58:39.001Z,105.43
2019-05-01T22:01:11.945Z,97.07
2019-05-01T22:03:40.938Z,102.90
2019-05-01T22:06:11.401Z,104.40
2019-05-01T22:08:42.475Z,104.07
2019-05-01T22:11:15.697Z,103.03
2019-05-01T22:13:45.436Z,105.93
2019-05-01T22:16:25.585Z,107.97
2019-05-01T22:19:07.058Z,117.37
2019-05-01T22:21:55.411Z,103.30
2019-05-01T22:24:56.097Z,109.47
2019-05-01T22:27:46.732Z,116.27
2019-05-01T22:30:42.224Z,112.27
2019-05-01T22:33:09.657Z,111.20
2019-05-01T22:35:41.901Z,117.53
2019-05-01T22:38:14.997Z,120.97
2019-05-01T22:41:09.257Z,124.00
2019-05-01T22:43:39.189Z,126.03
2019-05-01T22:46:11.049Z,116.03
2019-05-01T22:51:29.803Z,114.37
2019-05-01T22:53:59.591Z,112.57
2019-05-01T22:56:29.354Z,107.93
2019-05-01T22:59:02.341Z,116.43
2019-05-01T23:01:31.390Z,120.70
2019-05-01T23:04:04.496Z,113.17
2019-05-01T23:06:37.178Z,118.77
2019-05-01T23:09:08.271Z,123.17
2019-05-01T23:11:41.602Z,107.30
2019-05-01T23:14:10.925Z,122.97
2019-05-01T23:16:58.582Z,120.60
2019-05-01T23:19:32.799Z,126.53
2019-05-01T23:22:03.893Z,136.30
2019-05-01T23:24:34.717Z,138.37
2019-05-01T23:27:04.109Z,134.63
2019-05-01T23:29:39.218Z,131.80
2019-05-01T23:32:16.698Z,146.47
2019-05-01T23:34:46.559Z,145.90
2019-05-01T23:37:18.559Z,131.07
2019-05-01T23:39:48.361Z,135.33
2019-05-01T23:42:19.541Z,146.03
2019-05-01T23:44:49.273Z,149.03
2019-05-01T23:47:18.998Z,149.67
2019-05-01T23:49:52.578Z,144.10
2019-05-01T23:52:23.130Z,151.60
2019-05-01T23:54:55.975Z,153.77
2019-05-01T23:57:25.761Z,156.87
2019-05-01T23:59:55.529Z,138.90
